Time;durP1;ratioP1;P1;durP2;ratioP2;P2;SDS_P1;SDS_P2;PMS_P1;PMS_P2;Temp;Humidity;BMP_temperature;BMP_pressure;BME280_temperature;BME280_humidity;BME280_pressure;Samples;Min_cycle;Max_cycle;Signal;HPM_P1;HPM_P2
2021/11/11 00:02:09;;;;;;;182.03;89.60;;;;;;;-0.41;91.33;100037.77;3896644;90;21685;-91
2021/11/11 00:08:11;;;;;;;196.20;93.50;;;;;;;-0.34;92.25;100042.31;3894021;89;21054;-90
2021/11/11 00:14:33;;;;;;;173.30;83.87;;;;;;;-0.48;91.74;100038.63;3900451;89;21164;-90
2021/11/11 00:20:35;;;;;;;191.87;92.63;;;;;;;-0.57;92.14;100038.96;3899550;90;21298;-90
2021/11/11 00:26:36;;;;;;;182.50;90.70;;;;;;;-0.60;91.73;100041.39;3900691;89;21170;-90
2021/11/11 00:32:44;;;;;;;151.37;74.67;;;;;;;-0.61;92.14;100034.41;3891585;90;21176;-89
2021/11/11 00:38:47;;;;;;;183.63;88.40;;;;;;;-0.53;93.01;100032.46;3899111;90;21922;-90
2021/11/11 00:44:49;;;;;;;190.90;97.33;;;;;;;-0.52;92.18;100028.15;3893748;90;21084;-91
2021/11/11 00:50:53;;;;;;;207.23;99.27;;;;;;;-0.61;91.91;100025.00;3968643;88;21432;-91
2021/11/11 00:56:55;;;;;;;197.43;95.28;;;;;;;-0.60;92.43;100027.94;3972817;88;21555;-90
2021/11/11 01:03:01;;;;;;;217.87;100.27;;;;;;;-0.66;92.19;100029.05;3982751;88;21064;-90
2021/11/11 01:09:05;;;;;;;211.27;99.07;;;;;;;-0.82;92.23;100020.79;3983286;88;21560;-90
2021/11/11 01:15:11;;;;;;;173.93;85.03;;;;;;;-0.83;92.39;100015.94;3981107;87;21233;-90
2021/11/11 01:21:14;;;;;;;189.57;90.83;;;;;;;-0.88;92.07;100014.64;3977785;88;21069;-90
2021/11/11 01:27:15;;;;;;;179.23;87.00;;;;;;;-0.84;92.66;100018.38;3897307;87;21772;-90
2021/11/11 01:33:17;;;;;;;213.53;103.63;;;;;;;-0.82;92.42;100025.64;3902712;90;21049;-89
2021/11/11 01:39:22;;;;;;;221.27;103.27;;;;;;;-0.83;92.16;100013.25;3909324;90;21046;-91
2021/11/11 01:45:35;;;;;;;189.17;91.87;;;;;;;-0.96;91.99;100004.46;3906917;90;21094;-90
2021/11/11 01:51:39;;;;;;;197.03;92.07;;;;;;;-1.04;92.36;100006.37;3822630;92;21113;-91
2021/11/11 01:57:42;;;;;;;158.87;78.70;;;;;;;-0.99;92.47;100000.98;3901549;90;21101;-90
2021/11/11 02:03:47;;;;;;;170.80;85.80;;;;;;;-1.09;92.24;99988.92;3839540;92;21161;-89
2021/11/11 02:10:09;;;;;;;179.03;85.47;;;;;;;-0.99;93.00;99982.70;3897179;89;21087;-89
2021/11/11 02:16:16;;;;;;;186.70;90.47;;;;;;;-1.04;92.15;99980.84;3874038;91;21121;-89
2021/11/11 02:22:19;;;;;;;138.77;65.30;;;;;;;-1.18;92.16;99977.66;3897696;90;21070;-91
2021/11/11 02:28:22;;;;;;;163.50;77.13;;;;;;;-1.16;92.68;99984.36;3871899;90;21092;-90
2021/11/11 02:34:24;;;;;;;179.17;86.03;;;;;;;-1.24;92.27;99994.88;3905842;90;21186;-89
2021/11/11 02:40:31;;;;;;;186.63;89.83;;;;;;;-1.15;92.65;100002.64;3845690;90;21147;-90
2021/11/11 02:46:32;;;;;;;176.77;84.20;;;;;;;-1.18;92.41;99997.81;3908258;89;21167;-89
2021/11/11 02:52:36;;;;;;;180.30;83.20;;;;;;;-1.29;92.30;99990.34;3911271;89;21221;-90
2021/11/11 02:58:38;;;;;;;171.93;81.93;;;;;;;-1.32;92.44;99976.64;3914231;88;21106;-90
2021/11/11 03:04:40;;;;;;;144.60;72.37;;;;;;;-1.32;92.50;99968.58;3843683;90;21173;-89
2021/11/11 03:10:44;;;;;;;133.27;68.30;;;;;;;-1.30;92.76;99970.47;3920707;89;21090;-89
2021/11/11 03:16:47;;;;;;;129.23;64.37;;;;;;;-1.24;93.07;99966.67;3913233;90;21086;-90
2021/11/11 03:22:49;;;;;;;147.10;68.53;;;;;;;-1.23;92.89;99951.62;3902485;89;21113;-90
2021/11/11 03:28:53;;;;;;;115.23;56.20;;;;;;;-1.22;93.13;99943.04;3916959;90;21075;-91
2021/11/11 03:34:56;;;;;;;127.40;61.20;;;;;;;-1.20;93.05;99943.02;4030155;87;21081;-91
2021/11/11 03:41:02;;;;;;;128.47;62.07;;;;;;;-1.14;92.85;99937.09;4027103;87;21052;-90
2021/11/11 03:47:08;;;;;;;117.00;57.23;;;;;;;-1.23;92.74;99929.31;4040273;87;21158;-90
2021/11/11 03:53:11;;;;;;;126.87;60.37;;;;;;;-1.17;93.19;99933.05;4038799;87;21598;-91
2021/11/11 03:59:17;;;;;;;128.27;65.03;;;;;;;-1.15;92.82;99926.06;4018444;87;21042;-90
2021/11/11 04:05:19;;;;;;;127.33;65.23;;;;;;;-1.24;92.54;99914.30;4032616;87;21109;-89
2021/11/11 04:11:30;;;;;;;111.50;55.60;;;;;;;-1.31;92.86;99919.95;4035789;87;21032;-90
2021/11/11 04:17:34;;;;;;;131.13;64.27;;;;;;;-1.12;93.66;99922.83;4027448;86;21070;-89
2021/11/11 04:23:37;;;;;;;115.13;60.47;;;;;;;-1.07;92.95;99935.70;4037422;87;21599;-91
2021/11/11 04:29:44;;;;;;;117.17;56.23;;;;;;;-1.06;92.74;99935.15;4032036;87;21115;-88
2021/11/11 04:35:49;;;;;;;128.07;63.73;;;;;;;-1.15;92.95;99935.47;4030196;87;21106;-91
2021/11/11 05:01:10;;;;;;;127.53;59.67;;;;;;;-1.40;92.82;99920.80;4029100;86;21071;-91
2021/11/11 05:07:03;;;;;;;117.37;55.80;;;;;;;-1.44;92.90;99914.38;4032497;87;21150;-90
2021/11/11 05:13:06;;;;;;;100.67;50.23;;;;;;;-1.44;92.58;99899.05;4027996;87;21081;-90
2021/11/11 05:19:07;;;;;;;116.13;57.47;;;;;;;-1.47;93.11;99908.22;4013009;87;21065;-90
2021/11/11 05:25:12;;;;;;;121.33;55.90;;;;;;;-1.57;92.77;99913.61;4024757;87;21684;-91
2021/11/11 05:31:14;;;;;;;107.80;54.33;;;;;;;-1.55;93.01;99911.46;3996875;87;21088;-89
2021/11/11 05:37:17;;;;;;;107.47;53.10;;;;;;;-1.53;92.99;99906.07;3974726;88;21065;-90
2021/11/11 05:43:18;;;;;;;120.30;58.23;;;;;;;-1.70;92.61;99907.75;3983544;88;21084;-92
2021/11/11 05:49:23;;;;;;;124.43;57.63;;;;;;;-1.71;93.17;99902.09;3973664;88;21688;-89
2021/11/11 05:55:27;;;;;;;123.63;59.20;;;;;;;-1.84;92.29;99909.92;3955281;88;21093;-90
2021/11/11 06:01:30;;;;;;;124.50;54.87;;;;;;;-1.89;93.09;99920.13;3974588;88;21119;-90
2021/11/11 06:07:32;;;;;;;126.83;61.03;;;;;;;-1.89;93.36;99927.38;3981310;88;21065;-90
2021/11/11 06:13:36;;;;;;;135.70;59.20;;;;;;;-1.73;93.38;99929.77;3975233;88;21104;-92
2021/11/11 06:19:40;;;;;;;115.53;54.47;;;;;;;-1.68;93.18;99911.50;3971757;88;22133;-91
2021/11/11 06:25:43;;;;;;;114.60;52.10;;;;;;;-1.65;93.52;99905.05;3985419;87;22262;-90
2021/11/11 06:31:44;;;;;;;118.77;56.97;;;;;;;-1.48;93.35;99914.64;3982384;87;21096;-91
2021/11/11 06:37:48;;;;;;;126.73;55.47;;;;;;;-1.45;93.63;99912.22;3980277;88;21120;-91
2021/11/11 06:43:49;;;;;;;125.53;57.03;;;;;;;-1.40;93.41;99909.52;3981421;87;21068;-91
2021/11/11 06:49:51;;;;;;;110.23;52.10;;;;;;;-1.40;93.54;99899.31;3974853;88;21117;-93
2021/11/11 06:55:53;;;;;;;99.97;50.33;;;;;;;-1.24;94.29;99892.27;3978859;87;21488;-91
2021/11/11 07:01:55;;;;;;;110.00;54.07;;;;;;;-1.17;93.56;99891.41;3976255;87;21702;-89
2021/11/11 07:07:58;;;;;;;125.43;57.87;;;;;;;-1.03;94.51;99914.44;3899116;90;21091;-94
2021/11/11 07:14:00;;;;;;;119.87;59.27;;;;;;;-0.81;94.43;99912.98;3890696;89;21057;-90
2021/11/11 07:20:07;;;;;;;106.67;53.87;;;;;;;-0.70;94.31;99913.70;3888264;89;21697;-89
2021/11/11 07:26:10;;;;;;;122.05;62.95;;;;;;;-0.45;94.03;99899.55;3898683;90;21148;-90
2021/11/11 07:32:11;;;;;;;128.20;59.60;;;;;;;-0.04;95.40;99893.27;3964550;88;21208;-90
2021/11/11 07:38:17;;;;;;;126.42;61.95;;;;;;;0.56;95.13;99892.63;3973152;88;21023;-90
2021/11/11 07:44:19;;;;;;;126.45;61.98;;;;;;;1.19;95.41;99895.27;3960905;89;21123;-91
2021/11/11 07:50:22;;;;;;;138.32;63.63;;;;;;;1.63;94.81;99893.52;3969626;89;21074;-90
2021/11/11 07:56:25;;;;;;;132.78;65.28;;;;;;;2.19;94.08;99879.33;3968882;87;21505;-90
2021/11/11 08:02:28;;;;;;;131.30;62.33;;;;;;;3.05;95.44;99879.73;3950703;89;21093;-90
2021/11/11 08:08:32;;;;;;;126.35;61.37;;;;;;;3.48;94.27;99859.23;3815250;92;21861;-91
2021/11/11 08:14:33;;;;;;;123.18;62.93;;;;;;;4.12;93.99;99851.89;3876556;90;21472;-89
2021/11/11 08:20:36;;;;;;;119.87;63.58;;;;;;;4.61;94.49;99860.30;3887036;91;22425;-89
2021/11/11 08:26:37;;;;;;;115.17;63.42;;;;;;;5.48;93.87;99864.95;3867822;89;21143;-88
2021/11/11 08:32:47;;;;;;;116.12;65.17;;;;;;;5.81;92.23;99863.91;3822947;90;21133;-92
2021/11/11 08:38:49;;;;;;;114.82;57.25;;;;;;;6.28;91.29;99866.91;3837191;90;21082;-91
2021/11/11 08:44:51;;;;;;;128.15;71.75;;;;;;;7.15;92.90;99862.05;3843649;91;21043;-90
2021/11/11 08:50:55;;;;;;;122.62;66.72;;;;;;;7.39;89.73;99865.70;3859832;91;21113;-89
2021/11/11 08:56:58;;;;;;;119.57;65.92;;;;;;;7.72;89.36;99858.95;3867331;90;21805;-89
2021/11/11 09:03:03;;;;;;;112.40;62.33;;;;;;;8.61;90.27;99841.20;3859839;91;21198;-90
2021/11/11 09:09:05;;;;;;;108.03;63.87;;;;;;;9.20;87.96;99855.91;3874962;90;21596;-89
2021/11/11 09:15:14;;;;;;;106.25;61.00;;;;;;;9.78;89.10;99853.66;3876717;91;21108;-89
2021/11/11 09:21:15;;;;;;;92.72;57.30;;;;;;;10.16;87.70;99843.81;3840459;91;21134;-89
2021/11/11 09:27:17;;;;;;;85.42;50.63;;;;;;;10.75;86.04;99834.13;3819428;91;21733;-89
2021/11/11 09:33:19;;;;;;;78.57;48.48;;;;;;;11.10;86.48;99825.35;3944021;88;21168;-90
2021/11/11 09:39:20;;;;;;;82.97;50.05;;;;;;;11.65;85.41;99811.84;3967550;88;21176;-89
2021/11/11 09:45:27;;;;;;;69.67;44.60;;;;;;;12.02;85.31;99793.73;3960880;89;21112;-90
2021/11/11 09:51:29;;;;;;;;;;;;;;;11.87;82.40;99785.03;3949883;89;21719;-90
2021/11/11 10:03:57;;;;;;;48.02;30.27;;;;;;;12.16;82.73;99777.50;3920365;90;21038;-89
2021/11/11 10:09:59;;;;;;;45.15;29.57;;;;;;;12.46;82.34;99766.05;3914406;90;21558;-89
2021/11/11 10:16:12;;;;;;;52.75;32.50;;;;;;;12.59;80.51;99777.05;3926551;90;21589;-91
2021/11/11 10:22:33;;;;;;;50.08;29.32;;;;;;;12.64;79.80;99776.14;3925818;90;21123;-90
2021/11/11 10:28:40;;;;;;;39.98;25.32;;;;;;;12.45;79.39;99774.86;3924622;89;21161;-90
2021/11/11 10:35:01;;;;;;;50.58;29.98;;;;;;;12.16;77.98;99774.19;3850309;89;21199;-91
2021/11/11 10:41:03;;;;;;;39.20;25.92;;;;;;;12.00;76.64;99757.62;3834569;91;21096;-92
2021/11/11 10:47:08;;;;;;;40.40;25.23;;;;;;;11.95;77.10;99757.34;3901441;90;21116;-90
2021/11/11 10:53:14;;;;;;;36.58;24.80;;;;;;;11.89;76.82;99744.29;3970684;87;21072;-91
2021/11/11 10:59:20;;;;;;;43.40;28.07;;;;;;;11.98;75.66;99746.23;3872360;90;21606;-91
2021/11/11 11:05:41;;;;;;;48.10;27.90;;;;;;;11.90;75.31;99731.58;3889786;89;21130;-89
2021/11/11 11:11:47;;;;;;;42.65;23.02;;;;;;;11.82;74.03;99728.52;3867195;90;21193;-90
2021/11/11 11:17:55;;;;;;;32.03;19.95;;;;;;;11.51;73.67;99740.25;3888130;90;21077;-90
2021/11/11 11:24:01;;;;;;;30.65;17.90;;;;;;;11.39;73.31;99737.08;3976200;88;21576;-91
2021/11/11 11:30:13;;;;;;;25.12;15.60;;;;;;;11.26;72.66;99735.63;3898844;89;21110;-90
2021/11/11 11:36:20;;;;;;;25.45;16.02;;;;;;;11.29;72.08;99743.72;3889113;88;21187;-89
2021/11/11 11:42:30;;;;;;;25.72;16.55;;;;;;;11.26;71.92;99742.48;3889586;90;21744;-89
2021/11/11 11:48:36;;;;;;;24.80;16.10;;;;;;;11.23;71.63;99740.47;3890169;90;21097;-89
2021/11/11 11:54:48;;;;;;;27.00;15.90;;;;;;;10.98;70.96;99741.90;3887015;90;21117;-91
2021/11/11 12:01:06;;;;;;;25.60;16.25;;;;;;;10.88;70.67;99747.95;3879717;90;21807;-90
2021/11/11 12:39:43;;;;;;;35.52;22.42;;;;;;;10.43;68.24;99732.67;3958508;87;21073;-89
2021/11/11 12:45:47;;;;;;;38.28;25.37;;;;;;;10.49;68.67;99727.13;3972810;87;21567;-89
2021/11/11 12:52:17;;;;;;;38.10;23.87;;;;;;;10.51;69.91;99726.18;3964119;89;22300;-87
2021/11/11 12:58:56;;;;;;;47.97;28.03;;;;;;;10.58;69.83;99721.68;3919554;89;21716;-90
2021/11/11 13:04:58;;;;;;;50.78;30.20;;;;;;;10.58;69.88;99726.35;3845261;91;21517;-90
2021/11/11 13:11:05;;;;;;;54.08;30.12;;;;;;;10.36;69.53;99729.19;3880529;91;21202;-91
2021/11/11 13:17:20;;;;;;;46.48;28.42;;;;;;;10.26;70.45;99734.38;3877889;91;21194;-91
2021/11/11 13:23:28;;;;;;;49.13;28.77;;;;;;;10.22;70.55;99735.69;3850662;90;21489;-88
2021/11/11 14:01:32;;;;;;;46.83;25.52;;;;;;;9.87;71.11;99740.23;3954463;89;21061;-90
2021/11/11 15:17:43;;;;;;;126.45;54.77;;;;;;;7.78;72.86;99715.88;3982875;87;21568;-88
2021/11/11 16:02:44;;;;;;;66.37;38.13;;;;;;;5.88;75.26;99749.55;4006188;87;57929;-88
2021/11/11 16:27:35;;;;;;;83.07;44.58;;;;;;;5.18;76.80;99747.05;3910162;89;21076;-88
2021/11/11 16:33:39;;;;;;;94.13;49.13;;;;;;;5.06;77.06;99749.05;3916447;89;21659;-93
2021/11/11 16:39:41;;;;;;;131.37;61.18;;;;;;;4.97;77.41;99757.75;3970771;88;21035;-90
2021/11/11 16:45:43;;;;;;;92.62;47.78;;;;;;;4.82;77.61;99765.02;3930466;90;21064;-88
2021/11/11 16:51:46;;;;;;;70.45;35.83;;;;;;;4.62;77.48;99773.75;3913012;89;21064;-89
2021/11/11 16:57:48;;;;;;;89.15;46.08;;;;;;;4.42;77.96;99771.09;3949313;88;21098;-87
2021/11/11 17:03:50;;;;;;;102.75;52.53;;;;;;;4.26;78.16;99774.00;3959103;89;21089;-88
2021/11/11 17:09:52;;;;;;;118.28;56.88;;;;;;;4.08;78.62;99778.33;3953290;89;21123;-89
2021/11/11 17:15:55;;;;;;;85.10;43.05;;;;;;;3.91;78.68;99776.91;3998059;88;21092;-88
2021/11/11 17:21:58;;;;;;;85.12;44.80;;;;;;;3.80;79.08;99794.53;3989801;88;21156;-90
2021/11/11 17:34:17;;;;;;;93.87;48.68;;;;;;;3.63;79.75;99793.09;3864115;90;21110;-90
2021/11/11 17:40:21;;;;;;;97.30;47.78;;;;;;;3.53;79.88;99796.84;3868854;90;21072;-88
2021/11/11 17:46:27;;;;;;;81.20;42.75;;;;;;;3.43;80.16;99793.03;3870656;90;21080;-88
2021/11/11 17:52:29;;;;;;;81.37;42.50;;;;;;;3.45;80.41;99794.08;3872575;90;21119;-87
2021/11/11 17:58:37;;;;;;;105.50;54.23;;;;;;;3.39;80.67;99786.65;3915020;89;21136;-89
2021/11/11 18:04:43;;;;;;;91.37;48.90;;;;;;;3.27;80.52;99785.06;3905286;89;21100;-89
2021/11/11 18:10:42;;;;;;;91.72;45.98;;;;;;;3.15;80.97;99779.38;3824483;89;9999875;-89
2021/11/11 18:16:47;;;;;;;76.75;42.23;;;;;;;3.06;81.13;99777.98;3941225;89;21618;-88
2021/11/11 18:22:47;;;;;;;93.85;47.55;;;;;;;3.06;81.44;99784.75;3937587;89;21132;-90
2021/11/11 18:29:13;;;;;;;114.85;54.55;;;;;;;2.98;81.49;99782.77;3940070;89;21635;-88
2021/11/11 18:35:07;;;;;;;150.87;73.97;;;;;;;2.93;82.14;99785.58;3937238;89;21088;-88
2021/11/11 18:41:09;;;;;;;136.57;68.15;;;;;;;2.91;82.39;99783.73;3940158;89;21101;-90
2021/11/11 18:53:29;;;;;;;142.43;71.95;;;;;;;2.83;82.46;99787.73;3935646;89;21211;-90
2021/11/11 18:59:31;;;;;;;161.95;77.78;;;;;;;2.64;82.32;99795.17;3935955;89;22112;-88
2021/11/11 19:05:42;;;;;;;160.32;82.57;;;;;;;2.42;81.95;99792.41;3935506;89;22139;-88
2021/11/11 19:11:51;;;;;;;145.97;74.42;;;;;;;2.34;82.77;99792.56;3937966;89;21725;-88
2021/11/11 19:18:09;;;;;;;165.92;81.12;;;;;;;2.28;81.85;99794.31;3937940;89;21167;-91
2021/11/11 19:23:52;;;;;;;144.05;70.22;;;;;;;2.10;82.35;99783.08;3933355;89;21067;-90
2021/11/11 19:29:54;;;;;;;158.52;80.17;;;;;;;2.05;83.26;99789.36;3942741;89;21075;-89
2021/11/11 19:43:01;;;;;;;142.98;70.85;;;;;;;2.01;83.79;99787.02;3931433;89;21087;-88
2021/11/11 20:01:09;;;;;;;187.53;94.83;;;;;;;1.86;83.99;99794.61;3941686;89;21768;-88
2021/11/11 20:19:30;;;;;;;152.25;77.97;;;;;;;1.69;84.71;99797.09;3926891;89;22540;-90
2021/11/11 21:02:38;;;;;;;149.23;71.80;;;;;;;1.53;85.07;99804.08;3860573;90;21203;-86
2021/11/11 21:08:51;;;;;;;132.50;66.67;;;;;;;1.48;85.61;99810.94;3863727;90;21583;-88
2021/11/11 21:21:03;;;;;;;121.90;60.92;;;;;;;1.44;85.55;99805.86;3801045;91;21192;-90
2021/11/11 21:27:12;;;;;;;125.60;61.75;;;;;;;1.38;84.85;99811.63;3952640;89;21130;-87
2021/11/11 21:33:16;;;;;;;149.70;72.95;;;;;;;1.30;85.74;99810.98;3957061;89;21036;-89
2021/11/11 21:39:25;;;;;;;119.33;60.80;;;;;;;1.32;85.79;99816.86;3947038;89;21159;-91
2021/11/11 21:45:21;;;;;;;115.22;57.38;;;;;;;1.29;85.83;99820.15;3942182;89;21127;-88
2021/11/11 21:51:26;;;;;;;140.73;66.02;;;;;;;1.24;86.00;99822.38;3947706;89;22069;-87
2021/11/11 21:57:35;;;;;;;116.25;59.45;;;;;;;1.11;85.61;99823.11;3946136;89;21589;-88
2021/11/11 22:34:43;;;;;;;140.07;64.37;;;;;;;1.31;87.58;99822.83;3944769;89;21173;-87
2021/11/11 22:40:29;;;;;;;129.03;62.65;;;;;;;1.34;87.53;99824.94;3969736;88;21089;-87
2021/11/11 22:46:32;;;;;;;114.67;56.18;;;;;;;1.33;87.48;99824.66;3978252;88;21121;-86
2021/11/11 22:52:35;;;;;;;156.35;75.20;;;;;;;1.33;87.48;99824.66;3979402;87;21118;-86
2021/11/11 22:58:45;;;;;;;156.10;77.37;;;;;;;1.36;87.90;99825.98;3979453;88;21082;-87
2021/11/11 23:04:55;;;;;;;171.65;83.52;;;;;;;1.33;87.55;99823.31;3987255;87;21159;-87
2021/11/11 23:35:22;;;;;;;174.40;81.57;;;;;;;1.11;87.98;99817.72;3978426;88;21177;-86
2021/11/11 23:41:23;;;;;;;147.53;73.83;;;;;;;1.11;87.98;99817.72;3953679;88;21934;-90
2021/11/11 23:47:37;;;;;;;157.93;76.87;;;;;;;1.13;88.10;99807.98;3951867;88;21107;-88
